Time;durP1;ratioP1;P1;durP2;ratioP2;P2;SDS_P1;SDS_P2;PMS_P1;PMS_P2;Temp;Humidity;BMP_temperature;BMP_pressure;BME280_temperature;BME280_humidity;BME280_pressure;Samples;Min_cycle;Max_cycle;Signal;HPM_P1;HPM_P2
2022/04/23 00:01:43;;;;;;;8.35;5.72;;;12.40;57.30;;;;;;5117309;28;20020;-58
2022/04/23 00:04:13;;;;;;;6.75;5.40;;;12.40;58.10;;;;;;5110706;28;20028;-58
2022/04/23 00:06:39;;;;;;;6.28;5.30;;;12.40;57.60;;;;;;5113541;27;20050;-58
2022/04/23 00:09:05;;;;;;;6.32;5.45;;;12.40;58.90;;;;;;5130133;27;20024;-59
2022/04/23 00:11:32;;;;;;;6.88;5.75;;;12.40;58.00;;;;;;5120329;27;20055;-57
2022/04/23 00:13:58;;;;;;;6.97;5.80;;;12.40;57.70;;;;;;5114533;28;20091;-59
2022/04/23 00:16:24;;;;;;;6.53;5.55;;;12.40;57.90;;;;;;5119918;27;20028;-59
2022/04/23 00:18:51;;;;;;;8.40;5.55;;;12.40;57.90;;;;;;5117683;27;20837;-58
2022/04/23 00:21:18;;;;;;;6.93;6.15;;;12.40;58.00;;;;;;5119400;27;20040;-58
2022/04/23 00:23:45;;;;;;;6.20;5.45;;;12.40;58.30;;;;;;5114748;27;20039;-59
2022/04/23 00:26:11;;;;;;;6.10;5.47;;;12.40;58.10;;;;;;5117649;27;20039;-58
2022/04/23 00:28:36;;;;;;;6.78;5.88;;;12.40;58.10;;;;;;5127242;27;20020;-59
2022/04/23 00:31:02;;;;;;;7.15;5.75;;;12.40;58.20;;;;;;5110620;28;20071;-58
2022/04/23 00:33:28;;;;;;;7.25;5.63;;;12.40;58.00;;;;;;5121265;27;20398;-58
2022/04/23 00:35:54;;;;;;;6.30;5.70;;;12.40;58.20;;;;;;5129021;27;20024;-59
2022/04/23 00:38:19;;;;;;;7.43;6.20;;;12.30;58.10;;;;;;5126446;27;20035;-59
2022/04/23 00:40:46;;;;;;;8.43;6.10;;;12.30;58.40;;;;;;5118435;27;20088;-58
2022/04/23 00:43:25;;;;;;;7.47;6.38;;;12.30;58.20;;;;;;5131080;27;20019;-60
2022/04/23 00:45:50;;;;;;;9.02;6.07;;;12.40;59.80;;;;;;5114663;27;20069;-58
2022/04/23 00:48:16;;;;;;;9.25;6.40;;;12.30;58.60;;;;;;5127746;27;20402;-59
2022/04/23 00:50:42;;;;;;;6.97;5.72;;;12.30;58.80;;;;;;5119217;27;20434;-59
2022/04/23 00:53:09;;;;;;;10.35;5.45;;;12.40;58.70;;;;;;5124891;27;20036;-59
2022/04/23 00:55:36;;;;;;;10.15;5.57;;;12.40;58.70;;;;;;5126360;27;20016;-59
2022/04/23 00:58:03;;;;;;;8.40;5.85;;;12.40;58.70;;;;;;5122300;27;20020;-58
2022/04/23 01:00:29;;;;;;;6.47;5.68;;;12.40;58.80;;;;;;5128351;27;20084;-59
2022/04/23 01:02:55;;;;;;;6.78;6.07;;;12.40;58.90;;;;;;5118028;27;20028;-58
2022/04/23 01:05:24;;;;;;;6.35;5.75;;;12.40;58.80;;;;;;5127940;27;20035;-57
2022/04/23 01:07:52;;;;;;;7.07;5.95;;;12.40;58.70;;;;;;5122755;27;20028;-58
2022/04/23 01:10:18;;;;;;;6.97;6.00;;;12.40;58.80;;;;;;5121385;27;20035;-57
2022/04/23 01:12:46;;;;;;;8.15;6.25;;;12.40;58.90;;;;;;5123653;27;20030;-58
2022/04/23 01:15:14;;;;;;;6.97;6.28;;;12.40;58.90;;;;;;5124899;27;20042;-57
2022/04/23 01:17:40;;;;;;;6.63;5.97;;;12.40;58.90;;;;;;5115761;28;20020;-58
2022/04/23 01:20:11;;;;;;;7.85;6.50;;;12.40;58.60;;;;;;5121876;27;20020;-58
2022/04/23 01:22:38;;;;;;;7.03;6.15;;;12.40;59.20;;;;;;5123367;27;20016;-59
2022/04/23 01:25:06;;;;;;;9.23;6.13;;;12.40;58.90;;;;;;5117229;27;20051;-58
2022/04/23 01:27:33;;;;;;;6.75;6.07;;;12.40;59.10;;;;;;5129170;27;20027;-59
2022/04/23 01:29:59;;;;;;;7.40;6.35;;;12.40;58.90;;;;;;5115478;27;20615;-58
2022/04/23 01:32:25;;;;;;;6.57;5.90;;;12.30;58.90;;;;;;5113991;27;20048;-59
2022/04/23 01:34:50;;;;;;;7.40;6.60;;;12.30;59.00;;;;;;5120209;28;20027;-58
2022/04/23 01:37:19;;;;;;;6.53;5.72;;;12.30;58.90;;;;;;5127223;27;20120;-60
2022/04/23 01:39:49;;;;;;;6.70;6.00;;;12.40;59.00;;;;;;5124831;27;20031;-58
2022/04/23 01:42:17;;;;;;;7.40;6.55;;;12.40;59.00;;;;;;5118630;28;20035;-59
2022/04/23 01:44:46;;;;;;;6.80;6.07;;;12.30;59.00;;;;;;5117799;28;20050;-58
2022/04/23 01:47:12;;;;;;;7.20;6.35;;;12.30;59.10;;;;;;5120146;27;20399;-57
2022/04/23 01:49:38;;;;;;;6.55;5.72;;;12.30;59.00;;;;;;5113326;28;20047;-59
2022/04/23 01:52:04;;;;;;;7.50;6.57;;;12.30;59.00;;;;;;5123276;27;20486;-60
2022/04/23 01:54:29;;;;;;;6.93;6.22;;;12.30;59.90;;;;;;5123062;27;20074;-58
2022/04/23 01:56:59;;;;;;;12.68;6.75;;;12.30;59.20;;;;;;5122513;27;20482;-59
2022/04/23 01:59:25;;;;;;;7.55;6.45;;;12.30;59.70;;;;;;5127410;27;20015;-58
2022/04/23 02:01:52;;;;;;;6.20;5.60;;;12.30;59.20;;;;;;5122245;27;20107;-60
2022/04/23 02:04:18;;;;;;;7.70;6.72;;;12.40;59.20;;;;;;5113736;27;20019;-58
2022/04/23 02:06:44;;;;;;;7.88;6.63;;;12.30;59.10;;;;;;5112202;27;20078;-58
2022/04/23 02:09:10;;;;;;;8.68;6.63;;;12.30;59.20;;;;;;5124501;27;20028;-59
2022/04/23 02:11:35;;;;;;;8.65;7.20;;;12.30;59.00;;;;;;5118016;27;20058;-59
2022/04/23 02:14:04;;;;;;;6.85;6.15;;;12.30;59.40;;;;;;5117028;28;20027;-58
2022/04/23 02:16:31;;;;;;;8.02;6.65;;;12.30;59.20;;;;;;5113798;27;20119;-58
2022/04/23 02:19:03;;;;;;;7.15;5.85;;;12.20;59.10;;;;;;5123718;27;20027;-59
2022/04/23 02:21:29;;;;;;;7.60;6.03;;;12.20;59.10;;;;;;5130967;27;20030;-59
2022/04/23 02:23:55;;;;;;;7.65;6.85;;;12.20;59.10;;;;;;5109410;27;20023;-58
2022/04/23 02:26:21;;;;;;;7.35;6.32;;;12.20;59.20;;;;;;5113321;27;20481;-59
2022/04/23 02:28:47;;;;;;;7.60;6.38;;;12.20;59.40;;;;;;5119223;27;20035;-58
2022/04/23 02:31:13;;;;;;;7.70;6.78;;;12.20;59.20;;;;;;5117674;27;20031;-59
2022/04/23 02:33:39;;;;;;;7.47;6.45;;;12.20;59.40;;;;;;5111192;28;20034;-58
2022/04/23 02:36:08;;;;;;;8.35;7.07;;;12.20;59.30;;;;;;5119845;27;20028;-58
2022/04/23 02:38:37;;;;;;;7.80;6.82;;;12.20;59.40;;;;;;5116663;27;20028;-58
2022/04/23 02:41:02;;;;;;;8.65;7.13;;;12.10;59.50;;;;;;5109750;27;20510;-58
2022/04/23 02:43:28;;;;;;;7.68;6.35;;;12.10;59.80;;;;;;5119177;27;20061;-58
2022/04/23 02:45:53;;;;;;;10.40;7.57;;;12.10;59.40;;;;;;5126261;27;20031;-58
2022/04/23 02:48:19;;;;;;;13.88;7.57;;;12.10;59.60;;;;;;5118163;28;20051;-58
2022/04/23 02:50:45;;;;;;;8.48;7.15;;;12.10;60.10;;;;;;5123007;27;20035;-58
2022/04/23 02:53:11;;;;;;;7.63;6.85;;;12.10;59.60;;;;;;5123858;27;20109;-59
2022/04/23 02:55:38;;;;;;;10.00;8.10;;;12.00;59.30;;;;;;5115599;28;20015;-58
2022/04/23 02:58:07;;;;;;;9.80;8.00;;;12.00;59.40;;;;;;5116246;28;20079;-59
2022/04/23 03:00:34;;;;;;;9.02;7.45;;;11.90;59.70;;;;;;5115969;28;20089;-59
2022/04/23 03:02:59;;;;;;;9.60;8.35;;;11.90;59.30;;;;;;5126339;27;20027;-57
2022/04/23 03:05:26;;;;;;;9.15;7.75;;;11.80;59.40;;;;;;5114899;27;20035;-57
2022/04/23 03:07:53;;;;;;;8.85;7.55;;;11.80;59.50;;;;;;5112792;28;20031;-58
2022/04/23 03:10:19;;;;;;;9.55;7.72;;;11.80;59.80;;;;;;5114571;28;20066;-59
2022/04/23 03:12:46;;;;;;;8.02;7.20;;;11.70;59.60;;;;;;5127114;28;20048;-57
2022/04/23 03:15:14;;;;;;;9.05;7.60;;;11.70;59.60;;;;;;5123519;28;20050;-59
2022/04/23 03:17:40;;;;;;;9.20;7.82;;;11.60;60.00;;;;;;5118079;28;20055;-58
2022/04/23 03:20:10;;;;;;;10.00;8.82;;;11.60;60.00;;;;;;5125872;28;20051;-58
2022/04/23 03:22:37;;;;;;;9.80;7.97;;;11.60;60.00;;;;;;5118298;28;20023;-59
2022/04/23 03:25:03;;;;;;;9.55;8.00;;;11.60;59.90;;;;;;5120315;28;20028;-58
2022/04/23 03:27:30;;;;;;;9.02;7.63;;;11.60;60.10;;;;;;5123684;28;20027;-59
2022/04/23 03:29:59;;;;;;;9.00;7.53;;;11.60;60.30;;;;;;5127890;28;20031;-57
2022/04/23 03:32:25;;;;;;;9.45;7.85;;;11.60;60.30;;;;;;5124424;28;20385;-59
2022/04/23 03:34:51;;;;;;;8.40;7.53;;;11.50;60.10;;;;;;5118696;28;20035;-58
2022/04/23 03:37:17;;;;;;;9.98;8.15;;;11.60;60.20;;;;;;5119210;27;20403;-59
2022/04/23 03:39:44;;;;;;;8.93;7.55;;;11.60;60.30;;;;;;5117186;28;20020;-58
2022/04/23 03:42:10;;;;;;;9.98;7.55;;;11.50;60.20;;;;;;5118555;27;20540;-59
2022/04/23 03:44:36;;;;;;;8.90;7.65;;;11.50;60.30;;;;;;5121233;28;20520;-58
2022/04/23 03:47:02;;;;;;;10.40;7.40;;;11.50;60.50;;;;;;5122625;27;20027;-58
2022/04/23 03:49:29;;;;;;;8.13;6.93;;;11.50;60.40;;;;;;5115629;27;20047;-58
2022/04/23 03:51:55;;;;;;;8.82;6.78;;;11.50;60.40;;;;;;5125070;27;20040;-59
2022/04/23 03:54:21;;;;;;;8.10;7.28;;;11.40;60.50;;;;;;5126951;27;20474;-58
2022/04/23 03:56:47;;;;;;;8.85;7.45;;;11.40;61.00;;;;;;5126803;27;20055;-58
2022/04/23 03:59:14;;;;;;;8.98;7.22;;;11.40;60.60;;;;;;5120683;27;20032;-59
2022/04/23 04:01:40;;;;;;;8.82;7.22;;;11.40;60.60;;;;;;5118135;27;20024;-58
2022/04/23 04:04:06;;;;;;;9.00;7.70;;;11.40;60.60;;;;;;5117776;27;20028;-57
2022/04/23 04:06:33;;;;;;;7.93;6.80;;;11.40;60.60;;;;;;5111897;27;20099;-58
2022/04/23 04:08:59;;;;;;;8.50;7.45;;;11.40;60.80;;;;;;5114741;27;20188;-59
2022/04/23 04:11:24;;;;;;;8.35;7.32;;;11.40;60.80;;;;;;5116608;27;20097;-58
2022/04/23 04:13:50;;;;;;;8.02;7.15;;;11.40;60.80;;;;;;5108973;28;20031;-57
2022/04/23 04:16:17;;;;;;;7.22;6.53;;;11.40;60.70;;;;;;5117236;27;20032;-58
2022/04/23 04:18:45;;;;;;;7.38;6.63;;;11.40;60.70;;;;;;5120588;27;20020;-59
2022/04/23 04:21:12;;;;;;;7.78;6.72;;;11.40;60.60;;;;;;5110184;27;20027;-59
2022/04/23 04:23:39;;;;;;;7.88;6.90;;;11.40;60.30;;;;;;5110760;27;20019;-58
2022/04/23 04:26:06;;;;;;;7.10;6.22;;;11.40;60.70;;;;;;5111044;27;20494;-58
2022/04/23 04:28:32;;;;;;;9.32;5.68;;;11.30;60.60;;;;;;5123414;27;20023;-59
2022/04/23 04:33:42;;;;;;;8.20;6.65;;;11.30;60.90;;;;;;5113263;27;20055;-60
2022/04/23 04:36:07;;;;;;;7.10;6.30;;;11.20;60.70;;;;;;5114758;27;20589;-60
2022/04/23 04:38:33;;;;;;;9.07;7.32;;;11.20;60.70;;;;;;5125541;27;20053;-60
2022/04/23 04:40:59;;;;;;;7.63;6.60;;;11.20;60.90;;;;;;5117005;27;20035;-59
2022/04/23 04:43:25;;;;;;;7.30;6.35;;;11.20;60.70;;;;;;5113923;28;20032;-59
2022/04/23 04:45:51;;;;;;;6.47;5.82;;;11.20;60.90;;;;;;5123624;27;20024;-58
2022/04/23 04:48:16;;;;;;;7.47;6.72;;;11.20;60.80;;;;;;5126015;27;20047;-59
2022/04/23 04:50:42;;;;;;;7.95;6.90;;;11.20;61.00;;;;;;5116627;27;20032;-58
2022/04/23 04:53:08;;;;;;;8.18;6.63;;;11.20;60.70;;;;;;5121929;27;20029;-59
2022/04/23 04:55:36;;;;;;;7.00;6.30;;;11.20;61.20;;;;;;5118142;27;20035;-59
2022/04/23 04:58:02;;;;;;;8.57;7.05;;;11.10;61.10;;;;;;5115249;27;20019;-58
2022/04/23 05:00:28;;;;;;;8.00;6.55;;;11.10;61.40;;;;;;5119685;27;20369;-59
2022/04/23 05:02:54;;;;;;;8.07;6.65;;;11.10;61.60;;;;;;5123647;27;20019;-59
2022/04/23 05:05:20;;;;;;;8.60;7.00;;;11.10;61.50;;;;;;5121934;27;20098;-60
2022/04/23 05:07:46;;;;;;;7.70;6.47;;;11.10;61.80;;;;;;5122100;27;20027;-58
2022/04/23 05:10:11;;;;;;;7.43;6.60;;;11.10;61.60;;;;;;5127062;27;20057;-58
2022/04/23 05:12:37;;;;;;;14.25;7.47;;;11.00;61.40;;;;;;5123037;27;20034;-59
2022/04/23 05:15:03;;;;;;;8.70;6.82;;;11.00;62.00;;;;;;5119916;27;20024;-58
2022/04/23 05:17:28;;;;;;;11.35;6.93;;;11.10;62.20;;;;;;5121083;27;20113;-58
2022/04/23 05:19:54;;;;;;;7.40;6.60;;;11.00;61.70;;;;;;5108296;28;20457;-58
2022/04/23 05:22:20;;;;;;;8.23;7.07;;;11.10;61.60;;;;;;5121213;27;20032;-59
2022/04/23 05:24:45;;;;;;;8.70;7.20;;;11.10;62.00;;;;;;5121133;28;20053;-59
2022/04/23 05:27:11;;;;;;;8.95;6.70;;;11.10;61.90;;;;;;5117535;27;20026;-59
2022/04/23 05:29:36;;;;;;;7.75;6.65;;;11.10;61.70;;;;;;5114871;27;20035;-58
2022/04/23 05:32:02;;;;;;;8.70;6.82;;;11.00;61.80;;;;;;5115955;27;20051;-60
2022/04/23 05:34:28;;;;;;;8.38;7.05;;;11.00;61.70;;;;;;5121787;27;20024;-59
2022/04/23 05:36:54;;;;;;;8.02;6.72;;;11.00;61.60;;;;;;5121496;27;20019;-59
2022/04/23 05:39:20;;;;;;;9.57;7.20;;;11.10;61.90;;;;;;5123023;27;20505;-59
2022/04/23 05:41:45;;;;;;;8.23;6.72;;;11.10;62.00;;;;;;5122263;27;20031;-59
2022/04/23 05:44:11;;;;;;;9.10;7.55;;;11.10;61.90;;;;;;5118513;27;20024;-58
2022/04/23 05:46:37;;;;;;;9.57;6.82;;;11.10;61.90;;;;;;5116740;27;20646;-59
2022/04/23 05:49:02;;;;;;;9.30;7.63;;;11.10;62.00;;;;;;5126396;27;20040;-58
2022/04/23 05:51:28;;;;;;;8.18;6.60;;;11.10;62.00;;;;;;5115270;27;20052;-58
2022/04/23 05:53:54;;;;;;;8.63;7.28;;;11.20;61.80;;;;;;5118170;27;20030;-60
2022/04/23 05:56:19;;;;;;;8.57;7.10;;;11.20;61.90;;;;;;5124615;27;20038;-58
2022/04/23 05:58:46;;;;;;;8.65;7.25;;;11.20;61.70;;;;;;5122145;28;20028;-60
2022/04/23 06:01:12;;;;;;;7.63;6.50;;;11.20;61.80;;;;;;5120334;27;20083;-58
2022/04/23 06:03:37;;;;;;;11.15;7.82;;;11.20;61.60;;;;;;5129266;27;20044;-60
2022/04/23 06:06:04;;;;;;;10.32;8.45;;;11.20;61.60;;;;;;5122830;27;20026;-60
2022/04/23 06:08:29;;;;;;;10.32;7.80;;;11.20;61.80;;;;;;5125689;27;20027;-59
2022/04/23 06:10:55;;;;;;;9.10;7.35;;;11.20;61.70;;;;;;5118620;27;20340;-59
2022/04/23 06:13:20;;;;;;;9.88;7.78;;;11.20;61.80;;;;;;5129369;27;20038;-59
2022/04/23 06:15:46;;;;;;;10.45;7.28;;;11.20;61.80;;;;;;5122850;27;20035;-59
2022/04/23 06:18:12;;;;;;;9.25;7.43;;;11.30;62.00;;;;;;5119955;27;20497;-58
2022/04/23 06:20:37;;;;;;;12.45;7.97;;;11.30;61.90;;;;;;5112586;27;20038;-59
2022/04/23 06:23:04;;;;;;;12.15;7.95;;;11.30;62.00;;;;;;5119497;28;20034;-58
2022/04/23 06:25:31;;;;;;;9.38;7.55;;;11.30;61.80;;;;;;5118266;28;20020;-59
2022/04/23 06:27:57;;;;;;;10.85;8.88;;;11.40;61.80;;;;;;5119589;27;20035;-60
2022/04/23 06:30:23;;;;;;;10.40;8.40;;;11.40;62.00;;;;;;5118560;27;20032;-60
2022/04/23 06:32:48;;;;;;;10.25;8.00;;;11.40;61.90;;;;;;5123325;27;20031;-58
2022/04/23 06:35:14;;;;;;;10.55;8.07;;;11.40;61.80;;;;;;5116062;27;20016;-60
2022/04/23 06:37:41;;;;;;;11.27;9.13;;;11.40;61.80;;;;;;5122062;28;20024;-60
2022/04/23 06:40:11;;;;;;;11.50;9.05;;;11.50;62.40;;;;;;5120064;27;20019;-60
2022/04/23 06:42:38;;;;;;;9.90;7.88;;;11.50;61.90;;;;;;5117666;27;20423;-58
2022/04/23 06:45:05;;;;;;;12.75;9.05;;;11.40;61.60;;;;;;5114522;27;20036;-60
2022/04/23 06:47:30;;;;;;;11.48;8.68;;;11.40;61.80;;;;;;5122010;27;20024;-60
2022/04/23 06:49:59;;;;;;;12.90;9.23;;;11.50;61.70;;;;;;5124708;27;20087;-58
2022/04/23 06:52:26;;;;;;;10.98;8.43;;;11.50;62.00;;;;;;5115604;27;20024;-59
2022/04/23 06:54:54;;;;;;;13.35;8.85;;;11.50;61.70;;;;;;5120811;27;20051;-60
2022/04/23 06:57:24;;;;;;;11.55;8.45;;;11.60;61.90;;;;;;5118105;27;20045;-59
2022/04/23 06:59:50;;;;;;;12.32;9.10;;;11.60;61.70;;;;;;5105931;28;20086;-59
2022/04/23 07:02:17;;;;;;;12.13;8.88;;;11.60;61.60;;;;;;5119967;27;20030;-60
2022/04/23 07:04:43;;;;;;;12.60;7.88;;;11.60;61.60;;;;;;5112743;28;20095;-59
2022/04/23 07:07:10;;;;;;;11.60;8.55;;;11.70;61.50;;;;;;5120059;27;20038;-59
2022/04/23 07:09:36;;;;;;;10.13;8.00;;;11.70;61.60;;;;;;5121077;27;20037;-59
2022/04/23 07:12:02;;;;;;;10.65;7.85;;;11.70;61.70;;;;;;5114418;28;20040;-61
2022/04/23 07:14:27;;;;;;;10.40;7.40;;;11.80;61.60;;;;;;5116874;28;20465;-60
2022/04/23 07:16:53;;;;;;;10.35;7.07;;;11.80;61.50;;;;;;5117934;28;20044;-60
2022/04/23 07:19:19;;;;;;;13.70;7.85;;;11.90;61.50;;;;;;5115833;28;20493;-61
2022/04/23 07:21:45;;;;;;;18.63;7.10;;;11.90;61.40;;;;;;5121261;28;20050;-60
2022/04/23 07:24:11;;;;;;;11.45;6.93;;;12.00;61.30;;;;;;5111264;28;20035;-59
2022/04/23 07:26:38;;;;;;;13.73;6.70;;;12.00;61.30;;;;;;5126146;28;20019;-59
2022/04/23 07:29:07;;;;;;;16.00;6.72;;;12.10;61.20;;;;;;5119496;28;20169;-61
2022/04/23 07:31:34;;;;;;;17.80;6.95;;;12.10;61.00;;;;;;5113342;28;20063;-60
2022/04/23 07:39:28;;;;;;;7.90;6.25;;;12.30;60.50;;;;;;5119801;28;20070;-60
2022/04/23 07:41:54;;;;;;;10.25;7.05;;;12.30;60.30;;;;;;5119525;28;20015;-60
2022/04/23 07:44:24;;;;;;;24.00;10.25;;;12.40;60.40;;;;;;5124570;28;20054;-59
2022/04/23 07:46:50;;;;;;;11.23;8.07;;;12.40;60.20;;;;;;5116224;28;20036;-60
2022/04/23 07:49:17;;;;;;;12.32;8.40;;;12.40;60.50;;;;;;5113161;28;20484;-61
2022/04/23 07:51:43;;;;;;;8.90;6.85;;;12.50;60.40;;;;;;5116887;28;20059;-61
2022/04/23 07:54:09;;;;;;;11.38;7.35;;;12.50;60.40;;;;;;5119637;28;20023;-60
2022/04/23 07:56:35;;;;;;;9.50;7.63;;;12.50;60.20;;;;;;5117306;28;20053;-60
2022/04/23 07:59:02;;;;;;;9.10;7.38;;;12.60;60.20;;;;;;5107637;28;20044;-61
2022/04/23 08:01:28;;;;;;;9.60;7.22;;;12.60;60.00;;;;;;5119027;28;20024;-61
2022/04/23 08:03:53;;;;;;;9.13;6.75;;;12.70;59.90;;;;;;5114233;28;20027;-61
2022/04/23 08:06:19;;;;;;;13.05;7.80;;;12.70;59.80;;;;;;5112978;28;20038;-61
2022/04/23 08:08:45;;;;;;;11.93;7.65;;;12.70;59.80;;;;;;5115186;28;20032;-59
2022/04/23 08:11:11;;;;;;;9.63;7.43;;;12.70;59.80;;;;;;5111171;28;20032;-60
2022/04/23 08:13:36;;;;;;;19.27;7.93;;;12.80;59.80;;;;;;5111271;28;20012;-60
2022/04/23 08:16:03;;;;;;;11.68;7.95;;;12.80;59.80;;;;;;5113287;28;20028;-60
2022/04/23 08:18:29;;;;;;;13.10;6.82;;;12.80;59.80;;;;;;5120193;28;20037;-61
2022/04/23 08:20:55;;;;;;;9.20;6.85;;;12.90;59.70;;;;;;5112116;28;20020;-61
2022/04/23 08:23:21;;;;;;;9.45;6.95;;;12.90;59.60;;;;;;5115954;28;20027;-61
2022/04/23 08:25:47;;;;;;;10.57;6.95;;;12.90;59.50;;;;;;5025343;27;20025;-60
2022/04/23 08:31:12;;;;;;;8.85;6.78;;;13.00;59.30;;;;;;5112596;27;20062;-60
2022/04/23 08:36:22;;;;;;;;;;;13.10;59.20;;;;;;5117907;27;20106;-60
2022/04/23 08:38:48;;;;;;;21.15;6.50;;;13.10;59.20;;;;;;5129622;27;19915;-60
2022/04/23 08:41:14;;;;;;;16.55;7.50;;;13.10;59.00;;;;;;5120779;27;20406;-60
2022/04/23 08:43:43;;;;;;;9.05;6.28;;;13.10;58.90;;;;;;5122766;27;20032;-60
2022/04/23 08:46:09;;;;;;;8.50;6.07;;;13.20;59.00;;;;;;5128395;27;20029;-61
2022/04/23 08:48:38;;;;;;;10.98;6.50;;;13.20;59.00;;;;;;5135177;27;20035;-60
2022/04/23 08:51:12;;;;;;;13.07;6.30;;;13.20;59.10;;;;;;5108782;28;20040;-61
2022/04/23 08:53:40;;;;;;;9.05;6.43;;;13.20;59.10;;;;;;5115779;28;20026;-60
2022/04/23 08:56:08;;;;;;;8.27;6.47;;;13.30;59.00;;;;;;5122981;27;20084;-61
2022/04/23 08:58:33;;;;;;;15.23;6.70;;;13.30;58.80;;;;;;5115823;27;20449;-61
2022/04/23 09:00:59;;;;;;;7.57;6.53;;;13.30;58.90;;;;;;5121827;27;20019;-60
2022/04/23 09:03:24;;;;;;;8.75;6.40;;;13.40;58.90;;;;;;5118190;27;20034;-61
2022/04/23 09:05:51;;;;;;;9.38;6.25;;;13.40;58.90;;;;;;5118575;27;20054;-61
2022/04/23 09:08:17;;;;;;;8.95;6.20;;;13.40;58.90;;;;;;5123219;27;20103;-60
2022/04/23 09:10:44;;;;;;;7.65;6.05;;;13.40;58.70;;;;;;5119636;27;20055;-59
2022/04/23 09:13:10;;;;;;;7.78;6.07;;;13.50;58.70;;;;;;5126611;27;20023;-60
2022/04/23 09:24:09;;;;;;;7.03;6.03;;;13.60;58.60;;;;;;5120532;27;20034;-59
2022/04/23 09:26:35;;;;;;;9.70;6.13;;;13.70;58.70;;;;;;5117616;27;20027;-59
2022/04/23 09:29:15;;;;;;;8.00;6.07;;;13.70;58.50;;;;;;5113471;27;20028;-59
2022/04/23 09:31:41;;;;;;;8.68;6.28;;;13.70;58.60;;;;;;5130914;27;20031;-59
2022/04/23 09:34:23;;;;;;;9.15;6.43;;;13.80;58.50;;;;;;5125036;27;20012;-59
2022/04/23 09:36:50;;;;;;;7.60;5.88;;;13.80;58.50;;;;;;5124208;27;20023;-59
2022/04/23 09:39:38;;;;;;;7.53;6.03;;;13.90;58.50;;;;;;5125755;27;20023;-60
2022/04/23 09:42:18;;;;;;;13.73;5.95;;;14.00;58.50;;;;;;5115236;27;20150;-59
2022/04/23 09:44:47;;;;;;;9.40;5.60;;;14.10;58.40;;;;;;5129799;27;20079;-59
2022/04/23 09:47:30;;;;;;;7.38;5.38;;;14.10;58.10;;;;;;5121556;27;20024;-60
2022/04/23 09:49:56;;;;;;;6.25;5.18;;;14.20;58.10;;;;;;5128961;27;20053;-59
2022/04/23 09:52:28;;;;;;;8.35;6.20;;;14.20;57.90;;;;;;5120436;27;20048;-59
2022/04/23 09:54:55;;;;;;;9.38;6.50;;;14.20;58.10;;;;;;5121030;27;20027;-59
2022/04/23 09:57:22;;;;;;;13.05;6.63;;;14.30;58.00;;;;;;5119081;27;20018;-61
2022/04/23 09:59:52;;;;;;;9.43;5.93;;;14.30;57.90;;;;;;5119871;27;20035;-61
2022/04/23 10:02:21;;;;;;;6.72;5.50;;;14.40;57.80;;;;;;5122691;27;20565;-59
2022/04/23 10:04:47;;;;;;;8.45;6.07;;;14.40;57.60;;;;;;5123331;27;20027;-59
2022/04/23 10:07:17;;;;;;;13.63;5.70;;;14.40;57.50;;;;;;5119260;27;20032;-60
2022/04/23 10:09:46;;;;;;;10.25;5.15;;;14.40;57.60;;;;;;5115379;27;20019;-59
2022/04/23 10:12:19;;;;;;;8.38;5.50;;;14.50;57.70;;;;;;5108897;28;20092;-59
2022/04/23 10:14:58;;;;;;;7.22;5.30;;;14.50;57.70;;;;;;5123418;27;20019;-59
2022/04/23 10:17:24;;;;;;;7.82;6.03;;;14.60;57.80;;;;;;5112854;27;20026;-59
2022/04/23 10:19:51;;;;;;;10.77;5.45;;;14.60;57.80;;;;;;5118629;27;20115;-59
2022/04/23 10:22:52;;;;;;;7.78;4.85;;;14.70;58.00;;;;;;5121553;27;20023;-59
2022/04/23 10:25:45;;;;;;;8.40;5.20;;;14.90;57.80;;;;;;5114406;27;20024;-59
2022/04/23 10:28:12;;;;;;;6.22;4.45;;;15.00;57.50;;;;;;5119372;27;20031;-59
2022/04/23 10:30:37;;;;;;;9.13;4.53;;;15.10;57.20;;;;;;5118708;27;20039;-59
2022/04/23 10:33:23;;;;;;;5.95;4.70;;;15.20;57.00;;;;;;5129208;27;20458;-61
2022/04/23 10:36:08;;;;;;;7.25;4.80;;;15.30;56.50;;;;;;5124389;27;20073;-59
2022/04/23 10:38:38;;;;;;;11.00;5.07;;;15.40;56.40;;;;;;5111109;28;20031;-59
2022/04/23 10:41:05;;;;;;;6.97;4.95;;;15.40;56.20;;;;;;5121546;27;20051;-59
2022/04/23 10:43:31;;;;;;;7.25;4.75;;;15.50;56.20;;;;;;5120216;27;20023;-59
2022/04/23 10:46:00;;;;;;;9.30;5.35;;;15.60;56.40;;;;;;5115636;27;20036;-59
2022/04/23 10:48:27;;;;;;;10.25;4.90;;;15.60;56.00;;;;;;5119468;27;20048;-59
2022/04/23 10:51:08;;;;;;;7.60;4.95;;;15.70;55.90;;;;;;5113938;27;20576;-60
2022/04/23 10:53:37;;;;;;;11.27;5.70;;;15.70;55.90;;;;;;5116985;27;20533;-60
2022/04/23 10:56:14;;;;;;;14.00;5.57;;;15.70;55.70;;;;;;5123983;27;20028;-59
2022/04/23 10:58:41;;;;;;;9.13;5.40;;;15.80;55.30;;;;;;5119349;27;20028;-60
2022/04/23 11:01:30;;;;;;;7.43;5.10;;;15.80;55.20;;;;;;5115095;27;20020;-59
2022/04/23 11:03:58;;;;;;;18.33;5.88;;;15.80;55.00;;;;;;5120285;27;20043;-60
2022/04/23 11:12:23;;;;;;;15.60;5.40;;;15.70;55.00;;;;;;5118251;28;20070;-59
2022/04/23 11:14:53;;;;;;;6.88;5.45;;;15.70;55.20;;;;;;5108310;28;20496;-60
2022/04/23 11:17:37;;;;;;;9.85;6.18;;;15.70;55.40;;;;;;5118163;28;20023;-61
2022/04/23 11:20:03;;;;;;;;;;;15.80;55.20;;;;;;5115440;28;20053;-59
2022/04/23 11:22:29;;;;;;;7.78;5.30;;;15.80;55.30;;;;;;5118683;28;19908;-60
2022/04/23 11:24:57;;;;;;;9.93;6.10;;;15.80;55.10;;;;;;5110617;28;20450;-59
2022/04/23 11:27:27;;;;;;;8.25;6.07;;;15.80;55.20;;;;;;5113726;28;20028;-60
2022/04/23 11:29:56;;;;;;;6.80;5.75;;;15.90;55.30;;;;;;5119349;28;20028;-61
2022/04/23 11:32:29;;;;;;;7.78;5.70;;;15.90;55.20;;;;;;5115146;28;20341;-59
2022/04/23 11:34:56;;;;;;;8.18;5.75;;;15.90;55.10;;;;;;5122699;28;20043;-59
2022/04/23 11:37:29;;;;;;;8.55;5.80;;;15.90;54.90;;;;;;5120242;28;20072;-59
2022/04/23 11:40:11;;;;;;;7.07;5.43;;;15.90;54.80;;;;;;5110774;28;20041;-59
2022/04/23 11:42:41;;;;;;;6.47;5.40;;;15.80;54.80;;;;;;5113260;28;20093;-59
2022/04/23 11:45:08;;;;;;;8.48;5.35;;;15.80;55.00;;;;;;5121235;28;20190;-59
2022/04/23 11:47:34;;;;;;;9.07;6.00;;;15.90;55.00;;;;;;5118087;28;20023;-59
2022/04/23 11:50:14;;;;;;;7.60;5.97;;;15.90;55.00;;;;;;5121281;28;20048;-61
2022/04/23 11:52:56;;;;;;;10.48;6.50;;;16.00;55.00;;;;;;5118761;28;20030;-59
2022/04/23 11:55:23;;;;;;;8.10;6.05;;;16.00;54.70;;;;;;5115521;28;20064;-60
2022/04/23 11:57:57;;;;;;;9.52;6.75;;;16.10;54.70;;;;;;5119226;28;20035;-59
2022/04/23 12:00:24;;;;;;;8.88;7.07;;;16.10;54.60;;;;;;5120615;27;20120;-59
2022/04/23 12:02:51;;;;;;;9.45;6.47;;;16.20;55.30;;;;;;5130356;27;20024;-61
2022/04/23 12:05:31;;;;;;;8.60;6.78;;;16.30;54.90;;;;;;5121242;27;20069;-60
2022/04/23 12:07:58;;;;;;;8.80;6.53;;;16.30;54.90;;;;;;5122330;27;20024;-59
2022/04/23 12:10:24;;;;;;;8.85;6.68;;;16.40;54.90;;;;;;5126479;27;20505;-59
2022/04/23 12:12:51;;;;;;;9.70;7.03;;;16.60;54.90;;;;;;5115420;27;20114;-60
2022/04/23 12:15:19;;;;;;;14.18;6.70;;;16.70;54.20;;;;;;5126526;27;20040;-61
2022/04/23 12:17:50;;;;;;;12.65;6.70;;;16.80;54.20;;;;;;5112762;28;20054;-60
2022/04/23 12:20:19;;;;;;;15.80;7.32;;;16.80;53.90;;;;;;5126635;27;20020;-60
2022/04/23 12:23:07;;;;;;;8.82;7.07;;;16.90;53.60;;;;;;5123781;27;20019;-59
2022/04/23 12:25:34;;;;;;;14.32;7.13;;;16.90;52.70;;;;;;5032787;27;20027;-59
2022/04/23 12:28:03;;;;;;;9.73;7.20;;;16.90;53.30;;;;;;5121285;27;20023;-59
2022/04/23 12:42:07;;;;;;;11.60;6.88;;;16.90;53.20;;;;;;5119400;27;20034;-59
2022/04/23 12:44:42;;;;;;;9.82;7.22;;;16.90;52.90;;;;;;5120033;27;20038;-61
2022/04/23 12:47:17;;;;;;;11.63;7.68;;;16.90;53.00;;;;;;5119764;27;20094;-59
2022/04/23 12:49:52;;;;;;;;;;;16.90;53.00;;;;;;5116151;27;20052;-59
2022/04/23 12:52:20;;;;;;;11.95;7.85;;;17.00;52.90;;;;;;5127978;27;19919;-59
2022/04/23 12:55:18;;;;;;;12.15;8.02;;;17.00;53.10;;;;;;5123433;27;20055;-61
2022/04/23 12:57:51;;;;;;;12.38;7.80;;;17.00;52.90;;;;;;5119013;27;20023;-60
2022/04/23 13:00:22;;;;;;;10.52;7.63;;;17.00;52.80;;;;;;5125545;27;20069;-60
2022/04/23 13:02:57;;;;;;;11.25;8.20;;;17.00;52.80;;;;;;5120970;27;20049;-59
2022/04/23 13:05:24;;;;;;;10.90;8.07;;;17.00;52.70;;;;;;5120398;27;20101;-60
2022/04/23 13:10:35;;;;;;;52.58;11.23;;;17.00;52.70;;;;;;5108101;27;20635;-59
2022/04/23 13:13:01;;;;;;;12.88;8.18;;;17.00;52.80;;;;;;5123407;27;20474;-60
2022/04/23 13:15:27;;;;;;;10.95;7.85;;;16.90;53.10;;;;;;5122439;27;20011;-60
2022/04/23 13:17:53;;;;;;;13.73;9.65;;;17.00;52.90;;;;;;5116467;27;20533;-60
2022/04/23 13:20:19;;;;;;;16.25;9.82;;;16.90;52.60;;;;;;5117136;27;20550;-59
2022/04/23 13:22:45;;;;;;;14.40;9.45;;;16.90;52.40;;;;;;5116449;27;20023;-59
2022/04/23 13:25:14;;;;;;;14.18;9.43;;;16.90;52.70;;;;;;5058851;27;20530;-60
2022/04/23 13:27:40;;;;;;;15.55;9.50;;;16.90;52.80;;;;;;5124045;27;20030;-61
2022/04/23 13:30:07;;;;;;;17.55;9.68;;;16.90;52.80;;;;;;5118499;27;20020;-60
2022/04/23 13:32:35;;;;;;;16.10;9.85;;;16.90;52.80;;;;;;5113131;27;20032;-61